createdAt,value
2023-03-05T00:03:57.946Z,4.64
2023-03-05T00:08:01.102Z,4.55
2023-03-05T00:12:04.956Z,4.52
2023-03-05T00:16:10.799Z,4.49
2023-03-05T00:20:16.167Z,4.51
2023-03-05T00:24:19.541Z,4.51
2023-03-05T00:28:22.709Z,4.57
2023-03-05T00:32:26.329Z,4.53
2023-03-05T00:36:30.990Z,4.50
2023-03-05T00:40:37.242Z,4.53
2023-03-05T00:44:40.467Z,4.53
2023-03-05T00:48:43.616Z,4.44
2023-03-05T00:52:48.377Z,4.48
2023-03-05T00:56:51.425Z,4.43
2023-03-05T01:00:54.636Z,4.46
2023-03-05T01:04:57.757Z,4.47
2023-03-05T01:09:02.299Z,4.39
2023-03-05T01:13:05.435Z,4.42
2023-03-05T01:17:09.356Z,4.36
2023-03-05T01:21:13.070Z,4.35
2023-03-05T01:25:18.118Z,4.28
2023-03-05T01:29:21.167Z,4.25
2023-03-05T01:33:24.487Z,4.24
2023-03-05T01:37:27.594Z,4.21
2023-03-05T01:41:33.930Z,4.25
2023-03-05T01:45:37.088Z,4.21
2023-03-05T01:49:41.979Z,4.22
2023-03-05T01:53:45.760Z,4.23
2023-03-05T01:57:55.408Z,4.26
2023-03-05T02:01:59.769Z,4.25
2023-03-05T02:06:02.941Z,4.23
2023-03-05T02:10:16.806Z,4.26
2023-03-05T02:14:22.359Z,4.16
2023-03-05T02:18:25.923Z,4.11
2023-03-05T02:22:30.400Z,4.02
2023-03-05T02:26:33.590Z,4.00
2023-03-05T02:30:37.476Z,3.98
2023-03-05T02:34:41.116Z,3.99
2023-03-05T02:38:47.246Z,3.95
2023-03-05T02:42:50.898Z,3.96
2023-03-05T02:46:54.671Z,3.94
2023-03-05T02:50:59.060Z,3.89
2023-03-05T02:55:03.649Z,3.88
2023-03-05T02:59:07.166Z,3.90
2023-03-05T03:03:11.141Z,3.85
2023-03-05T03:07:16.156Z,3.82
2023-03-05T03:11:21.623Z,3.98
2023-03-05T03:15:24.933Z,3.98
2023-03-05T03:19:28.095Z,3.99
2023-03-05T03:23:31.416Z,3.90
2023-03-05T03:27:35.865Z,3.80
2023-03-05T03:31:41.107Z,3.84
2023-03-05T03:35:44.217Z,3.81
2023-03-05T03:39:47.437Z,3.75
2023-03-05T03:43:51.953Z,3.80
2023-03-05T03:47:54.998Z,3.78
2023-03-05T03:51:58.288Z,3.72
2023-03-05T03:56:01.713Z,3.70
2023-03-05T04:00:08.455Z,3.67
2023-03-05T04:04:15.993Z,3.69
2023-03-05T04:08:19.219Z,3.75
2023-03-05T04:12:22.596Z,3.79
2023-03-05T04:16:27.191Z,3.77
2023-03-05T04:20:30.249Z,3.63
2023-03-05T04:24:33.475Z,3.64
2023-03-05T04:28:36.659Z,3.66
2023-03-05T04:32:41.491Z,3.58
2023-03-05T04:36:44.775Z,3.59
2023-03-05T04:40:48.016Z,3.50
2023-03-05T04:44:51.743Z,3.65
2023-03-05T04:48:56.802Z,3.71
2023-03-05T04:53:00.617Z,3.67
2023-03-05T04:57:03.874Z,3.70
2023-03-05T05:01:07.994Z,3.67
2023-03-05T05:05:14.646Z,3.68
2023-03-05T05:09:17.862Z,3.71
2023-03-05T05:13:20.958Z,3.72
2023-03-05T05:17:24.699Z,3.67
2023-03-05T05:21:29.100Z,3.62
2023-03-05T05:25:32.307Z,3.56
2023-03-05T05:29:35.622Z,3.53
2023-03-05T05:33:39.264Z,3.48
2023-03-05T05:37:43.993Z,3.45
2023-03-05T05:41:47.431Z,3.38
2023-03-05T05:45:50.723Z,3.50
2023-03-05T05:49:53.963Z,3.41
2023-03-05T05:53:58.358Z,3.40
2023-03-05T05:58:01.917Z,3.42
2023-03-05T06:02:05.662Z,3.37
2023-03-05T06:06:11.449Z,3.35
2023-03-05T06:10:16.345Z,3.33
2023-03-05T06:14:19.791Z,3.29
2023-03-05T06:18:22.945Z,3.35
2023-03-05T06:22:26.045Z,3.47
2023-03-05T06:26:30.614Z,3.49
2023-03-05T06:30:33.737Z,3.50
2023-03-05T06:34:37.073Z,3.44
2023-03-05T06:38:40.724Z,3.53
2023-03-05T06:42:45.692Z,3.55
2023-03-05T06:46:48.831Z,3.62
2023-03-05T06:50:51.948Z,3.60
2023-03-05T06:54:55.921Z,3.63
2023-03-05T06:59:00.962Z,3.64
2023-03-05T07:03:04.474Z,3.66
2023-03-05T07:07:07.634Z,3.69
2023-03-05T07:11:11.916Z,3.69
2023-03-05T07:15:16.477Z,3.77
2023-03-05T07:19:19.692Z,3.80
2023-03-05T07:23:22.764Z,3.82
2023-03-05T07:27:25.856Z,3.90
2023-03-05T07:31:32.233Z,3.88
2023-03-05T07:35:35.412Z,4.04
2023-03-05T07:39:38.441Z,4.12
2023-03-05T07:43:41.744Z,4.19
2023-03-05T07:47:46.121Z,4.25
2023-03-05T07:51:49.130Z,4.37
2023-03-05T07:55:52.165Z,4.45
2023-03-05T07:59:55.365Z,4.53
2023-03-05T08:03:59.878Z,4.66
2023-03-05T08:08:03.595Z,4.82
2023-03-05T08:12:07.057Z,4.85
2023-03-05T08:16:14.153Z,4.78
2023-03-05T08:20:20.037Z,4.81
2023-03-05T08:24:29.339Z,4.87
2023-03-05T08:28:34.325Z,4.97
2023-03-05T08:32:37.583Z,5.04
2023-03-05T08:36:42.123Z,4.85
2023-03-05T08:40:45.191Z,5.13
2023-03-05T08:44:48.533Z,4.97
2023-03-05T08:48:51.655Z,4.74
2023-03-05T08:52:57.073Z,4.75
2023-03-05T08:57:00.152Z,4.84
2023-03-05T09:01:03.345Z,4.81
2023-03-05T09:05:07.468Z,4.78
2023-03-05T09:09:14.006Z,4.63
2023-03-05T09:13:17.095Z,4.40
2023-03-05T09:17:20.179Z,4.30
2023-03-05T09:21:23.348Z,4.34
2023-03-05T09:25:28.360Z,4.50
2023-03-05T09:29:31.801Z,4.47
2023-03-05T09:33:35.768Z,4.38
2023-03-05T09:37:38.841Z,4.30
2023-03-05T09:42:04.764Z,4.31
2023-03-05T09:46:20.094Z,4.37
2023-03-05T09:50:34.344Z,4.55
2023-03-05T09:54:40.960Z,4.54
2023-03-05T09:58:49.708Z,4.50
2023-03-05T10:02:58.579Z,4.57
2023-03-05T10:07:09.367Z,4.59
2023-03-05T10:11:23.360Z,4.65
2023-03-05T10:15:36.166Z,4.50
2023-03-05T10:19:54.206Z,4.79
2023-03-05T10:24:04.489Z,4.90
2023-03-05T10:28:17.971Z,5.02
2023-03-05T10:32:37.264Z,5.09
2023-03-05T10:36:57.145Z,5.45
2023-03-05T10:41:08.779Z,5.81
2023-03-05T10:45:16.584Z,5.70
2023-03-05T10:49:24.032Z,5.98
2023-03-05T10:53:32.156Z,5.62
2023-03-05T10:57:35.220Z,5.46
2023-03-05T11:01:38.396Z,5.26
2023-03-05T11:05:45.655Z,5.28
2023-03-05T11:10:04.286Z,5.36
2023-03-05T11:14:30.013Z,5.63
2023-03-05T11:18:35.386Z,5.73
2023-03-05T11:22:39.967Z,5.55
2023-03-05T11:26:51.811Z,5.71
2023-03-05T11:31:00.969Z,5.52
2023-03-05T11:35:30.999Z,5.90
2023-03-05T11:39:38.789Z,6.31
2023-03-05T11:43:44.920Z,6.31
2023-03-05T11:47:51.067Z,6.40
2023-03-05T11:52:01.862Z,6.21
2023-03-05T11:56:18.044Z,6.01
2023-03-05T12:00:28.435Z,5.84
2023-03-05T12:04:35.542Z,5.89
2023-03-05T12:08:42.881Z,5.58
2023-03-05T12:12:54.247Z,4.99
2023-03-05T12:17:05.817Z,5.76
2023-03-05T12:21:18.634Z,5.54
2023-03-05T12:25:29.485Z,5.59
2023-03-05T12:29:40.747Z,5.13
2023-03-05T12:33:45.207Z,5.36
2023-03-05T12:38:17.213Z,5.16
2023-03-05T12:42:47.837Z,5.49
2023-03-05T12:47:19.359Z,5.87
2023-03-05T12:51:35.080Z,6.37
2023-03-05T12:55:46.857Z,6.32
2023-03-05T12:59:54.843Z,6.14
2023-03-05T13:04:04.248Z,6.08
2023-03-05T13:08:15.947Z,6.11
2023-03-05T13:12:19.335Z,6.04
2023-03-05T13:16:26.054Z,6.07
2023-03-05T13:20:37.680Z,6.17
2023-03-05T13:24:40.773Z,6.23
2023-03-05T13:28:45.829Z,6.39
2023-03-05T13:32:52.005Z,6.48
2023-03-05T13:37:00.853Z,6.61
2023-03-05T13:41:22.758Z,6.76
2023-03-05T13:45:28.487Z,6.80
2023-03-05T13:49:32.701Z,6.56
2023-03-05T13:53:37.189Z,6.40
2023-03-05T13:57:42.319Z,6.13
2023-03-05T14:01:48.061Z,6.36
2023-03-05T14:05:51.483Z,6.34
2023-03-05T14:09:56.718Z,6.39
2023-03-05T14:14:08.012Z,6.25
2023-03-05T14:18:21.268Z,6.36
2023-03-05T14:22:33.016Z,6.30
2023-03-05T14:26:41.339Z,6.23
2023-03-05T14:30:47.224Z,6.11
2023-03-05T14:34:54.102Z,6.16
2023-03-05T14:38:57.917Z,6.21
2023-03-05T14:43:04.325Z,6.23
2023-03-05T14:47:07.861Z,6.10
2023-03-05T14:51:13.146Z,6.14
2023-03-05T14:55:18.038Z,6.14
2023-03-05T14:59:22.526Z,6.24
2023-03-05T15:03:28.020Z,6.23
2023-03-05T15:07:33.318Z,6.29
2023-03-05T15:11:36.832Z,6.30
2023-03-05T15:15:42.243Z,6.18
2023-03-05T15:19:45.920Z,6.13
2023-03-05T15:23:49.189Z,6.03
2023-03-05T15:27:52.211Z,6.07
2023-03-05T15:31:56.555Z,6.04
2023-03-05T15:35:59.882Z,6.00
2023-03-05T15:40:03.087Z,6.03
2023-03-05T15:44:06.409Z,5.93
2023-03-05T15:48:10.984Z,5.80
2023-03-05T15:52:14.591Z,5.75
2023-03-05T15:56:18.467Z,5.74
2023-03-05T16:00:26.360Z,5.70
2023-03-05T16:04:31.458Z,5.56
2023-03-05T16:08:36.828Z,5.48
2023-03-05T16:12:43.093Z,5.43
2023-03-05T16:16:46.570Z,5.40
2023-03-05T16:20:51.570Z,5.32
2023-03-05T16:24:54.623Z,5.29
2023-03-05T16:28:57.730Z,5.15
2023-03-05T16:33:01.253Z,5.08
2023-03-05T16:37:06.963Z,5.05
2023-03-05T16:41:09.969Z,5.00
2023-03-05T16:45:13.831Z,4.92
2023-03-05T16:49:17.535Z,4.94
2023-03-05T16:53:21.970Z,4.89
2023-03-05T16:57:25.819Z,4.88
2023-03-05T17:01:30.304Z,4.82
2023-03-05T17:05:36.811Z,4.78
2023-03-05T17:09:41.548Z,4.79
2023-03-05T17:13:46.505Z,4.69
2023-03-05T17:17:51.399Z,4.63
2023-03-05T17:21:54.585Z,4.68
2023-03-05T17:25:59.081Z,4.66
2023-03-05T17:30:02.459Z,4.63
2023-03-05T17:34:05.868Z,4.60
2023-03-05T17:38:10.918Z,4.56
2023-03-05T17:42:15.824Z,4.57
2023-03-05T17:46:19.099Z,4.54
2023-03-05T17:50:22.708Z,4.51
2023-03-05T17:54:26.109Z,4.49
2023-03-05T17:58:30.774Z,4.50
2023-03-05T18:02:34.359Z,4.45
2023-03-05T18:06:37.483Z,4.41
2023-03-05T18:10:40.644Z,4.40
2023-03-05T18:14:45.013Z,4.40
2023-03-05T18:18:48.169Z,4.33
2023-03-05T18:22:51.232Z,4.30
2023-03-05T18:26:54.314Z,4.34
2023-03-05T18:30:58.742Z,4.32
2023-03-05T18:35:02.094Z,4.26
2023-03-05T18:39:05.387Z,4.25
2023-03-05T18:43:08.777Z,4.25
2023-03-05T18:47:13.368Z,4.26
2023-03-05T18:51:18.696Z,4.22
2023-03-05T18:55:24.038Z,4.19
2023-03-05T18:59:27.464Z,4.14
2023-03-05T19:03:31.921Z,4.13
2023-03-05T19:07:35.356Z,4.15
2023-03-05T19:11:38.488Z,4.14
2023-03-05T19:15:41.837Z,4.10
2023-03-05T19:19:51.962Z,4.13
2023-03-05T19:23:55.025Z,4.12
2023-03-05T19:27:58.142Z,4.13
2023-03-05T19:32:01.424Z,4.07
2023-03-05T19:36:09.302Z,4.07
2023-03-05T19:40:13.778Z,4.11
2023-03-05T19:44:17.266Z,4.10
2023-03-05T19:48:20.344Z,4.09
2023-03-05T19:52:24.761Z,4.10
2023-03-05T19:56:28.674Z,4.09
2023-03-05T20:00:31.751Z,4.09
2023-03-05T20:04:35.707Z,4.08
2023-03-05T20:08:40.416Z,4.06
2023-03-05T20:12:47.709Z,4.04
2023-03-05T20:16:51.005Z,3.99
2023-03-05T20:20:55.669Z,3.94
2023-03-05T20:25:00.244Z,3.89
2023-03-05T20:29:04.982Z,3.87
2023-03-05T20:33:08.199Z,3.82
2023-03-05T20:37:11.258Z,3.80
2023-03-05T20:41:18.326Z,3.79
2023-03-05T20:45:21.431Z,3.81
2023-03-05T20:49:25.195Z,3.80
2023-03-05T20:53:28.809Z,3.78
2023-03-05T20:57:33.257Z,3.76
2023-03-05T21:01:39.256Z,3.67
2023-03-05T21:05:42.536Z,3.59
2023-03-05T21:09:45.640Z,3.59
2023-03-05T21:13:50.379Z,3.51
2023-03-05T21:17:54.078Z,3.47
2023-03-05T21:21:57.441Z,3.43
2023-03-05T21:26:00.629Z,3.38
2023-03-05T21:30:06.258Z,3.34
2023-03-05T21:34:09.473Z,3.29
2023-03-05T21:38:14.248Z,3.29
2023-03-05T21:42:17.433Z,3.25
2023-03-05T21:46:21.940Z,3.24
2023-03-05T21:50:26.312Z,3.15
2023-03-05T21:54:29.664Z,3.15
2023-03-05T21:58:34.574Z,3.14
2023-03-05T22:02:40.082Z,3.08
2023-03-05T22:06:43.188Z,3.09
2023-03-05T22:10:46.271Z,3.07
2023-03-05T22:14:49.345Z,3.04
2023-03-05T22:18:54.533Z,3.05
2023-03-05T22:22:57.562Z,3.05
2023-03-05T22:27:02.005Z,3.03
2023-03-05T22:31:05.250Z,2.99
2023-03-05T22:35:13.603Z,3.00
2023-03-05T22:39:16.686Z,3.00
2023-03-05T22:43:20.822Z,2.99
2023-03-05T22:47:23.921Z,2.97
2023-03-05T22:51:28.446Z,2.93
2023-03-05T22:55:32.090Z,2.95
2023-03-05T22:59:35.334Z,2.95
2023-03-05T23:03:38.387Z,2.95
2023-03-05T23:07:43.784Z,2.94
2023-03-05T23:11:46.831Z,2.93
2023-03-05T23:15:49.872Z,2.96
2023-03-05T23:19:52.872Z,2.93
2023-03-05T23:23:57.849Z,2.92
2023-03-05T23:28:01.526Z,2.98
2023-03-05T23:32:04.955Z,2.99
2023-03-05T23:36:09.745Z,3.01
2023-03-05T23:40:19.317Z,3.02
2023-03-05T23:44:22.317Z,2.98
2023-03-05T23:48:26.586Z,3.02
2023-03-05T23:52:29.638Z,3.08
2023-03-05T23:56:34.010Z,3.06
